Luebbering, MO

11:33 PM CST on December 26, 2014 (GMT -0600)
Parkway Village | Change Station
CLOSE
Current Station
Personal Weather Station
Location: St Clair, MO
Elevation: 748 ft
Nearby Weather Stations

Elev 748 ft 38.34 °N, 90.97 °W | Updated 8 seconds ago

Mostly Cloudy
Mostly Cloudy
47.7 °F
Feels Like 48 °F
N
2.2
Wind Variable Wind from South
Gusts 8.3 mph

Today
High -- | Low -- °F
--% Chance of Precip.
Yesterday
High -- | Low -- °F
Precip. -- in
7:18 AM 4:49 PM
Waxing Crescent, 33% visible
Pressure 30.04 in
Visibility 10.0 miles
Clouds Mostly Cloudy 1200 ft
Overcast 3000 ft
Windchill 48 °F
Dew Point 45 °F
Humidity 89%
Rainfall 0.07 in
Snow Depth Not available.
UV 0 out of 12
Pollen 4.60 out of 12
Air Quality Not available.
Flu Activity Not available.
METAR KFYG 270515Z AUTO 16007KT 10SM BKN012 OVC030 09/08 A3004 RMK AO2

More Conditions Fewer Conditions

Pressure 30.04 in
Visibility 10.0 miles
Clouds Mostly Cloudy 1200 ft
Overcast 3000 ft
Windchill 48 °F
Dew Point 45 °F
Humidity 89%
Rainfall 0.07 in
Snow Depth Not available.
UV 0 out of 12
Pollen 4.60 out of 12
Air Quality Not available.
Flu Activity Not available.
METAR KFYG 270515Z AUTO 16007KT 10SM BKN012 OVC030 09/08 A3004 RMK AO2

More Conditions Fewer Conditions

10-Day Weather Forecast

Almanac

Astronomy

Dec. 26, 2014 Rise Set
Actual Time
Civil Twilight
Nautical Twilight
Astronomical Twilight
Moon
Length of Visible Light
Length of Day
Tomorrow will be .
, % of the Moon is Illuminated

Today's Extremes

State Highs State Lows

Community

WunderPhotos

Upload Photos

1,780,849 photos uploaded!

WunderBlogs® & News

Nearby

Air Quality

  Air Quality AQ Index Pollutant
Not available.

Snow Depth

Station Depth Elevation

Earthquake Activity

City Distance Mag. Time & Date
Minimum magnitude displayed is 2.5.

Coastal Water Temperatures

Place Temperature

Nearby Weather Stations